Time;durP1;ratioP1;P1;durP2;ratioP2;P2;SDS_P1;SDS_P2;PMS_P1;PMS_P2;Temp;Humidity;BMP_temperature;BMP_pressure;BME280_temperature;BME280_humidity;BME280_pressure;Samples;Min_cycle;Max_cycle;Signal;HPM_P1;HPM_P2
2021/11/13 00:03:53;;;;;;;;;;;16.10;42.00;;;;;;8367619;28;19923;-50
2021/11/13 00:07:53;;;;;;;;;;;16.10;42.00;;;;;;8367335;28;19928;-49
2021/11/13 00:11:54;;;;;;;;;;;16.10;42.00;;;;;;8366775;28;19956;-52
2021/11/13 00:15:54;;;;;;;;;;;16.10;42.00;;;;;;8366934;28;19960;-50
2021/11/13 00:19:55;;;;;;;;;;;16.10;42.00;;;;;;8367216;28;19924;-48
2021/11/13 00:23:56;;;;;;;;;;;16.10;42.00;;;;;;8366388;28;20307;-48
2021/11/13 00:27:56;;;;;;;;;;;16.10;42.00;;;;;;8366179;28;19978;-49
2021/11/13 00:31:57;;;;;;;;;;;16.10;42.00;;;;;;8366469;28;19970;-48
2021/11/13 00:35:57;;;;;;;;;;;16.10;42.50;;;;;;8366216;28;19921;-50
2021/11/13 00:39:58;;;;;;;;;;;16.10;42.00;;;;;;8366470;28;20010;-48
2021/11/13 00:43:58;;;;;;;;;;;16.10;42.00;;;;;;8366094;28;19920;-48
2021/11/13 00:47:58;;;;;;;;;;;16.10;42.00;;;;;;8365364;28;19925;-48
2021/11/13 00:51:59;;;;;;;;;;;16.10;42.00;;;;;;8366198;28;19963;-53
2021/11/13 00:56:00;;;;;;;;;;;16.10;42.00;;;;;;8365575;28;19921;-53
2021/11/13 01:00:00;;;;;;;;;;;16.10;42.00;;;;;;8365543;28;19917;-49
2021/11/13 01:04:01;;;;;;;;;;;16.10;42.00;;;;;;8365514;28;19939;-49
2021/11/13 01:08:02;;;;;;;;;;;16.10;42.00;;;;;;8365336;28;19921;-49
2021/11/13 01:12:02;;;;;;;;;;;16.10;42.00;;;;;;8364884;28;19920;-48
2021/11/13 01:16:03;;;;;;;;;;;16.10;42.00;;;;;;8365302;28;19992;-49
2021/11/13 01:20:05;;;;;;;;;;;16.10;42.00;;;;;;8365257;28;19917;-48
2021/11/13 01:24:06;;;;;;;;;;;16.10;42.00;;;;;;8364305;28;19983;-48
2021/11/13 01:28:07;;;;;;;;;;;16.10;42.00;;;;;;8364645;28;19987;-49
2021/11/13 01:32:07;;;;;;;;;;;16.10;42.00;;;;;;8364537;28;20354;-48
2021/11/13 01:36:08;;;;;;;;;;;16.10;42.00;;;;;;8364218;28;19943;-49
2021/11/13 01:40:11;;;;;;;;;;;16.10;42.00;;;;;;8364602;28;20362;-50
2021/11/13 01:44:11;;;;;;;;;;;16.10;42.50;;;;;;8363745;28;19921;-49
2021/11/13 01:48:12;;;;;;;;;;;16.10;42.00;;;;;;8363697;28;19970;-50
2021/11/13 01:52:14;;;;;;;;;;;16.10;42.00;;;;;;8364065;28;19913;-49
2021/11/13 01:56:20;;;;;;;;;;;16.10;42.00;;;;;;8364238;28;20364;-49
2021/11/13 02:00:24;;;;;;;;;;;16.10;42.00;;;;;;8364176;28;19917;-50
2021/11/13 02:04:25;;;;;;;;;;;16.10;42.00;;;;;;8364009;28;20325;-51
2021/11/13 02:08:25;;;;;;;;;;;16.10;42.00;;;;;;8353410;28;20023;-49
2021/11/13 02:12:26;;;;;;;;;;;16.10;42.00;;;;;;8364104;28;19917;-49
2021/11/13 02:16:26;;;;;;;;;;;16.10;42.00;;;;;;8363647;28;19917;-49
2021/11/13 02:20:36;;;;;;;;;;;16.10;42.00;;;;;;8363441;28;20259;-50
2021/11/13 02:24:37;;;;;;;;;;;16.10;42.00;;;;;;8363707;28;20285;-49
2021/11/13 02:28:37;;;;;;;;;;;16.10;42.00;;;;;;8363446;28;19932;-49
2021/11/13 02:32:38;;;;;;;;;;;16.10;42.00;;;;;;8363173;28;19913;-50
2021/11/13 02:36:39;;;;;;;;;;;16.10;42.00;;;;;;8363468;28;19912;-49
2021/11/13 02:40:41;;;;;;;;;;;16.10;42.00;;;;;;8363750;28;20378;-50
2021/11/13 02:44:42;;;;;;;;;;;16.10;42.00;;;;;;8362857;28;19982;-52
2021/11/13 02:48:43;;;;;;;;;;;16.10;42.00;;;;;;8363303;28;20015;-52
2021/11/13 02:52:48;;;;;;;;;;;16.10;42.00;;;;;;8364435;28;19967;-50
2021/11/13 02:56:48;;;;;;;;;;;16.10;42.00;;;;;;8369238;28;19928;-48
2021/11/13 03:00:50;;;;;;;;;;;16.10;42.00;;;;;;8369709;28;20362;-54
2021/11/13 03:04:51;;;;;;;;;;;16.10;42.00;;;;;;8367845;28;19924;-49
2021/11/13 03:08:53;;;;;;;;;;;16.10;42.00;;;;;;8368649;28;19924;-48
2021/11/13 03:12:54;;;;;;;;;;;16.00;41.90;;;;;;8369273;28;19923;-53
2021/11/13 03:17:01;;;;;;;;;;;16.10;42.00;;;;;;8369061;28;19913;-52
2021/11/13 03:21:05;;;;;;;;;;;16.00;41.90;;;;;;8368611;28;19917;-52
2021/11/13 03:25:10;;;;;;;;;;;16.00;41.90;;;;;;8368749;28;19928;-51
2021/11/13 03:29:18;;;;;;;;;;;16.10;42.00;;;;;;8368878;28;19924;-48
2021/11/13 03:33:19;;;;;;;;;;;16.00;41.90;;;;;;8368215;28;19924;-49
2021/11/13 03:37:19;;;;;;;;;;;16.00;41.90;;;;;;8368711;28;20329;-49
2021/11/13 03:41:20;;;;;;;;;;;16.10;42.00;;;;;;8368112;28;19917;-50
2021/11/13 03:45:21;;;;;;;;;;;16.00;41.90;;;;;;8368066;28;19978;-50
2021/11/13 03:49:21;;;;;;;;;;;16.00;41.90;;;;;;8367875;28;20382;-50
2021/11/13 03:53:22;;;;;;;;;;;16.10;42.00;;;;;;8367198;28;19953;-50
2021/11/13 03:57:23;;;;;;;;;;;16.00;41.90;;;;;;8367554;28;19921;-48
2021/11/13 04:01:23;;;;;;;;;;;16.00;41.90;;;;;;8367821;28;19920;-50
2021/11/13 04:05:23;;;;;;;;;;;16.00;41.90;;;;;;8366313;28;19924;-50
2021/11/13 04:09:24;;;;;;;;;;;16.00;41.90;;;;;;8367205;28;19925;-50
2021/11/13 04:13:24;;;;;;;;;;;16.00;41.90;;;;;;8367254;28;19917;-48
2021/11/13 04:17:25;;;;;;;;;;;16.00;41.90;;;;;;8366592;28;19924;-50
2021/11/13 04:21:26;;;;;;;;;;;16.00;41.90;;;;;;8367034;28;19913;-48
2021/11/13 04:25:27;;;;;;;;;;;16.00;41.90;;;;;;8366731;28;19939;-48
2021/11/13 04:29:28;;;;;;;;;;;16.00;41.90;;;;;;8366200;28;19964;-50
2021/11/13 04:33:29;;;;;;;;;;;16.00;41.90;;;;;;8366902;28;20404;-49
2021/11/13 04:37:30;;;;;;;;;;;16.00;41.90;;;;;;8366475;28;19912;-50
2021/11/13 04:41:30;;;;;;;;;;;16.00;41.90;;;;;;8366384;28;20392;-49
2021/11/13 04:45:31;;;;;;;;;;;16.00;41.90;;;;;;8366541;28;19924;-48
2021/11/13 04:49:32;;;;;;;;;;;16.00;41.90;;;;;;8366032;28;19967;-49
2021/11/13 04:53:32;;;;;;;;;;;16.00;41.90;;;;;;8365410;28;19924;-47
2021/11/13 04:57:33;;;;;;;;;;;16.00;41.90;;;;;;8366294;28;19921;-51
2021/11/13 05:01:33;;;;;;;;;;;16.00;41.90;;;;;;8366156;28;20000;-48
2021/11/13 05:05:34;;;;;;;;;;;16.00;41.90;;;;;;8364138;28;19913;-49
2021/11/13 05:09:34;;;;;;;;;;;16.10;42.00;;;;;;8365644;28;19931;-48
2021/11/13 05:13:35;;;;;;;;;;;16.00;41.90;;;;;;8365410;28;19917;-48
2021/11/13 05:17:35;;;;;;;;;;;16.10;42.00;;;;;;8363747;28;19925;-47
2021/11/13 05:21:36;;;;;;;;;;;16.10;42.00;;;;;;8365356;28;20336;-48
2021/11/13 05:25:37;;;;;;;;;;;16.00;41.90;;;;;;8365282;28;19917;-48
2021/11/13 05:29:37;;;;;;;;;;;16.10;42.00;;;;;;8364167;28;19922;-49
2021/11/13 05:33:38;;;;;;;;;;;16.10;42.00;;;;;;8364654;28;19921;-48
2021/11/13 05:37:39;;;;;;;;;;;16.10;42.00;;;;;;8364757;28;20277;-47
2021/11/13 05:41:41;;;;;;;;;;;16.10;42.00;;;;;;8364577;28;19932;-47
2021/11/13 05:45:42;;;;;;;;;;;16.00;41.90;;;;;;8364501;28;19917;-48
2021/11/13 05:49:42;;;;;;;;;;;16.10;42.00;;;;;;8364393;28;19929;-48
2021/11/13 05:53:43;;;;;;;;;;;16.10;42.00;;;;;;8363554;28;19917;-48
2021/11/13 05:57:43;;;;;;;;;;;16.00;41.90;;;;;;8364652;28;19967;-49
2021/11/13 06:01:44;;;;;;;;;;;16.10;42.00;;;;;;8364379;28;19917;-49
2021/11/13 06:05:44;;;;;;;;;;;16.00;41.90;;;;;;8363576;28;19916;-49
2021/11/13 06:09:45;;;;;;;;;;;16.00;41.90;;;;;;8363793;28;19929;-48
2021/11/13 06:13:45;;;;;;;;;;;16.10;42.00;;;;;;8363858;28;20369;-48
2021/11/13 06:17:46;;;;;;;;;;;16.10;42.00;;;;;;8363481;28;20137;-48
2021/11/13 06:21:46;;;;;;;;;;;16.00;41.90;;;;;;8364012;28;19923;-48
2021/11/13 06:25:47;;;;;;;;;;;16.00;41.90;;;;;;8363669;28;20058;-48
2021/11/13 06:29:47;;;;;;;;;;;16.10;42.00;;;;;;8367757;28;19925;-48
2021/11/13 06:33:48;;;;;;;;;;;16.10;42.00;;;;;;8370204;28;19917;-50
2021/11/13 06:37:49;;;;;;;;;;;16.10;42.00;;;;;;8370378;28;19912;-48
2021/11/13 06:41:49;;;;;;;;;;;16.10;42.00;;;;;;8369872;28;19925;-47
2021/11/13 06:45:50;;;;;;;;;;;16.10;42.00;;;;;;8369762;28;20366;-48
2021/11/13 06:49:50;;;;;;;;;;;16.10;42.00;;;;;;8369517;28;19932;-51
2021/11/13 06:53:51;;;;;;;;;;;16.10;42.00;;;;;;8369151;28;19943;-48
2021/11/13 06:57:52;;;;;;;;;;;16.10;42.00;;;;;;8370139;28;19920;-48
2021/11/13 07:01:52;;;;;;;;;;;16.10;42.00;;;;;;8369528;28;20254;-47
2021/11/13 07:05:53;;;;;;;;;;;16.10;42.00;;;;;;8368762;28;19921;-48
2021/11/13 07:09:53;;;;;;;;;;;16.10;42.00;;;;;;8368939;28;20295;-48
2021/11/13 07:13:54;;;;;;;;;;;16.10;42.00;;;;;;8369060;28;20336;-48
2021/11/13 07:17:54;;;;;;;;;;;16.10;42.00;;;;;;8368629;28;20389;-46
2021/11/13 07:21:55;;;;;;;;;;;16.10;42.00;;;;;;8368938;28;20290;-47
2021/11/13 07:25:56;;;;;;;;;;;16.10;42.00;;;;;;8368558;28;19920;-48
2021/11/13 07:30:04;;;;;;;;;;;16.10;42.00;;;;;;8367734;28;19929;-47
2021/11/13 07:34:04;;;;;;;;;;;16.10;42.00;;;;;;8368289;28;20000;-48
2021/11/13 07:38:05;;;;;;;;;;;16.10;42.00;;;;;;8368472;28;19917;-48
2021/11/13 07:42:05;;;;;;;;;;;16.10;42.00;;;;;;8366670;28;20384;-50
2021/11/13 07:46:06;;;;;;;;;;;16.10;42.00;;;;;;8367861;28;20007;-49
2021/11/13 07:50:08;;;;;;;;;;;16.10;42.00;;;;;;8368064;28;19943;-49
2021/11/13 07:54:10;;;;;;;;;;;16.10;42.00;;;;;;8367348;28;19917;-51
2021/11/13 07:58:15;;;;;;;;;;;16.10;42.00;;;;;;8367807;28;19917;-48
2021/11/13 08:02:16;;;;;;;;;;;16.10;42.00;;;;;;8367526;28;19921;-48
2021/11/13 08:06:16;;;;;;;;;;;16.10;42.00;;;;;;8366861;28;19961;-48
2021/11/13 08:10:17;;;;;;;;;;;16.10;42.00;;;;;;8366165;28;19925;-48
2021/11/13 08:14:18;;;;;;;;;;;16.10;42.00;;;;;;8367371;28;20297;-48
2021/11/13 08:18:18;;;;;;;;;;;16.10;42.00;;;;;;8366805;28;19917;-48
2021/11/13 08:22:19;;;;;;;;;;;16.10;42.00;;;;;;8366948;28;20433;-49
2021/11/13 08:26:19;;;;;;;;;;;16.10;42.00;;;;;;8366846;28;20000;-48
2021/11/13 08:30:22;;;;;;;;;;;16.10;42.00;;;;;;8366380;28;20370;-48
2021/11/13 08:34:22;;;;;;;;;;;16.10;42.00;;;;;;8366722;28;19995;-52
2021/11/13 08:38:23;;;;;;;;;;;16.10;42.00;;;;;;8366279;28;19913;-48
2021/11/13 08:42:23;;;;;;;;;;;16.10;42.00;;;;;;8366481;28;19920;-48
2021/11/13 08:46:24;;;;;;;;;;;16.10;42.00;;;;;;8366395;28;19963;-48
2021/11/13 08:50:26;;;;;;;;;;;16.10;42.00;;;;;;8365307;28;19925;-47
2021/11/13 08:54:26;;;;;;;;;;;16.10;42.00;;;;;;8365639;28;20374;-49
2021/11/13 08:58:27;;;;;;;;;;;16.10;42.00;;;;;;8365898;28;19913;-48
2021/11/13 09:02:27;;;;;;;;;;;16.10;42.00;;;;;;8365196;28;19970;-50
2021/11/13 09:06:30;;;;;;;;;;;16.20;42.00;;;;;;8365547;28;19924;-49
2021/11/13 09:10:31;;;;;;;;;;;16.20;42.00;;;;;;8365108;28;19978;-49
2021/11/13 09:14:32;;;;;;;;;;;16.10;42.00;;;;;;8364846;28;20354;-49
2021/11/13 09:18:33;;;;;;;;;;;16.20;42.00;;;;;;8365328;28;19919;-56
2021/11/13 09:22:33;;;;;;;;;;;16.10;42.00;;;;;;8364906;28;19924;-49
2021/11/13 09:26:34;;;;;;;;;;;16.20;42.00;;;;;;8364380;28;20005;-56
2021/11/13 09:30:35;;;;;;;;;;;16.20;42.00;;;;;;8365075;28;19928;-54
2021/11/13 09:34:36;;;;;;;;;;;16.20;42.00;;;;;;8364901;28;19917;-54
2021/11/13 09:38:39;;;;;;;;;;;16.20;42.00;;;;;;8364479;28;19924;-49
2021/11/13 09:42:39;;;;;;;;;;;16.20;42.00;;;;;;8364697;28;19916;-51
2021/11/13 09:46:41;;;;;;;;;;;16.20;42.00;;;;;;8364242;28;19917;-55
2021/11/13 09:50:44;;;;;;;;;;;16.20;42.00;;;;;;8363671;28;19921;-52
2021/11/13 09:54:45;;;;;;;;;;;16.20;42.00;;;;;;8364468;28;20012;-52
2021/11/13 09:58:46;;;;;;;;;;;16.20;42.00;;;;;;8364334;28;19920;-56
2021/11/13 10:02:47;;;;;;;;;;;16.20;42.00;;;;;;8363034;28;20345;-52
2021/11/13 10:06:47;;;;;;;;;;;16.20;42.00;;;;;;8364377;28;19917;-54
2021/11/13 10:10:48;;;;;;;;;;;16.20;42.00;;;;;;8364173;28;19978;-49
2021/11/13 10:14:49;;;;;;;;;;;16.20;42.00;;;;;;8363379;28;19917;-49
2021/11/13 10:18:51;;;;;;;;;;;16.20;42.00;;;;;;8363945;28;19952;-54
2021/11/13 10:22:51;;;;;;;;;;;16.20;42.00;;;;;;8363605;28;19917;-55
2021/11/13 10:26:53;;;;;;;;;;;16.20;42.10;;;;;;8363345;28;19931;-53
2021/11/13 10:31:14;;;;;;;;;;;16.20;42.10;;;;;;8363643;28;19948;-47
2021/11/13 10:35:15;;;;;;;;;;;16.20;42.10;;;;;;8363492;28;19925;-48
2021/11/13 10:39:16;;;;;;;;;;;16.20;42.10;;;;;;8363177;28;19913;-53
2021/11/13 10:43:17;;;;;;;;;;;16.20;42.10;;;;;;8363292;28;19917;-54
2021/11/13 10:47:22;;;;;;;;;;;16.20;42.10;;;;;;8363237;28;20381;-52
2021/11/13 10:51:28;;;;;;;;;;;16.20;42.10;;;;;;8363428;28;20386;-54
2021/11/13 10:55:28;;;;;;;;;;;16.20;42.10;;;;;;8363637;28;19947;-56
2021/11/13 10:59:30;;;;;;;;;;;16.20;42.10;;;;;;8362897;28;19938;-52
2021/11/13 11:03:41;;;;;;;;;;;16.20;42.10;;;;;;8363345;28;20004;-48
2021/11/13 11:07:42;;;;;;;;;;;16.20;42.10;;;;;;8340459;28;19968;-53
2021/11/13 11:11:43;;;;;;;;;;;16.30;42.20;;;;;;8345598;28;19917;-55
2021/11/13 11:15:43;;;;;;;;;;;16.30;42.10;;;;;;8367133;28;20012;-52
2021/11/13 11:19:47;;;;;;;;;;;16.30;42.00;;;;;;8368222;28;20389;-51
2021/11/13 11:24:06;;;;;;;;;;;16.30;42.10;;;;;;8368616;28;19917;-50
2021/11/13 11:28:06;;;;;;;;;;;16.40;42.10;;;;;;8368856;28;20355;-51
2021/11/13 11:32:07;;;;;;;;;;;16.40;42.10;;;;;;8368512;28;19920;-56
2021/11/13 11:36:28;;;;;;;;;;;16.40;42.10;;;;;;8368126;28;19924;-53
2021/11/13 11:40:33;;;;;;;;;;;16.50;42.10;;;;;;8368280;28;20436;-49
2021/11/13 11:44:34;;;;;;;;;;;16.40;42.10;;;;;;8367884;28;19967;-50
2021/11/13 11:48:35;;;;;;;;;;;16.50;42.10;;;;;;8368423;28;19925;-49
2021/11/13 11:52:36;;;;;;;;;;;16.50;42.10;;;;;;8367905;28;19917;-48
2021/11/13 11:56:36;;;;;;;;;;;16.50;42.10;;;;;;8367816;28;19931;-49
2021/11/13 12:00:37;;;;;;;;;;;16.50;42.20;;;;;;8367841;28;20278;-49
2021/11/13 12:04:38;;;;;;;;;;;16.50;42.20;;;;;;8367829;28;19963;-49
2021/11/13 12:08:39;;;;;;;;;;;16.50;42.20;;;;;;8366734;28;20400;-50
2021/11/13 12:12:41;;;;;;;;;;;16.50;42.20;;;;;;8366939;28;19916;-51
2021/11/13 12:16:41;;;;;;;;;;;16.50;42.70;;;;;;8366509;28;20000;-48
2021/11/13 12:20:42;;;;;;;;;;;16.50;42.20;;;;;;8366557;28;20269;-49
2021/11/13 12:25:02;;;;;;;;;;;16.50;42.20;;;;;;8367348;28;20076;-52
2021/11/13 12:29:04;;;;;;;;;;;16.50;42.20;;;;;;8367226;28;19924;-50
2021/11/13 12:33:23;;;;;;;;;;;16.50;42.20;;;;;;8366099;28;19917;-49
2021/11/13 12:37:24;;;;;;;;;;;16.50;42.20;;;;;;8366446;28;19959;-47
2021/11/13 12:41:43;;;;;;;;;;;16.50;42.30;;;;;;8365744;28;19916;-47
2021/11/13 12:45:43;;;;;;;;;;;16.50;42.30;;;;;;8366456;28;19920;-47
2021/11/13 12:49:44;;;;;;;;;;;16.50;42.30;;;;;;8366104;28;19921;-48
2021/11/13 12:53:53;;;;;;;;;;;16.50;42.30;;;;;;8365585;28;19917;-47
2021/11/13 12:57:58;;;;;;;;;;;16.50;42.30;;;;;;8366109;28;19921;-49
2021/11/13 13:02:05;;;;;;;;;;;16.50;42.30;;;;;;8365773;28;19917;-47
2021/11/13 13:06:13;;;;;;;;;;;16.50;42.30;;;;;;8365191;28;19923;-48
2021/11/13 13:10:13;;;;;;;;;;;16.50;42.30;;;;;;8365897;28;19967;-48
2021/11/13 13:14:15;;;;;;;;;;;16.50;42.30;;;;;;8365325;28;19917;-48
2021/11/13 13:18:16;;;;;;;;;;;16.50;42.30;;;;;;8364660;28;19917;-48
2021/11/13 13:22:18;;;;;;;;;;;16.50;42.40;;;;;;8364973;28;19959;-51
2021/11/13 13:26:19;;;;;;;;;;;16.50;42.40;;;;;;8365053;28;20266;-51
2021/11/13 13:30:19;;;;;;;;;;;16.50;42.40;;;;;;8364495;28;19925;-51
2021/11/13 13:34:19;;;;;;;;;;;16.50;42.40;;;;;;8364892;28;19944;-52
2021/11/13 13:38:21;;;;;;;;;;;16.50;42.40;;;;;;8363278;28;19913;-48
2021/11/13 13:42:32;;;;;;;;;;;16.50;42.40;;;;;;8365334;28;19924;-51
2021/11/13 13:46:41;;;;;;;;;;;16.50;42.40;;;;;;8364527;28;19913;-50
2021/11/13 13:50:44;;;;;;;;;;;16.50;42.40;;;;;;8364222;28;20336;-48
2021/11/13 13:54:45;;;;;;;;;;;16.50;42.50;;;;;;8364401;28;20007;-48
2021/11/13 13:58:46;;;;;;;;;;;16.50;42.50;;;;;;8364132;28;19971;-48
2021/11/13 14:02:46;;;;;;;;;;;16.50;42.50;;;;;;8363648;28;19982;-49
2021/11/13 14:06:47;;;;;;;;;;;16.50;42.50;;;;;;8357387;28;20361;-47
2021/11/13 14:10:51;;;;;;;;;;;16.50;42.60;;;;;;8359434;28;19975;-47
2021/11/13 14:14:52;;;;;;;;;;;16.50;43.10;;;;;;8362329;28;19917;-48
2021/11/13 14:18:52;;;;;;;;;;;16.50;44.00;;;;;;8361668;28;20046;-51
2021/11/13 14:22:54;;;;;;;;;;;16.30;45.30;;;;;;8362993;28;19917;-51
2021/11/13 14:27:02;;;;;;;;;;;16.20;45.40;;;;;;8362153;28;19924;-51
2021/11/13 14:31:03;;;;;;;;;;;16.30;44.40;;;;;;8363914;28;20373;-51
2021/11/13 14:35:08;;;;;;;;;;;16.30;44.10;;;;;;8363497;28;19917;-53
2021/11/13 14:39:13;;;;;;;;;;;16.40;43.90;;;;;;8362819;28;19999;-52
2021/11/13 14:43:20;;;;;;;;;;;16.40;43.80;;;;;;8363090;28;19917;-50
2021/11/13 14:47:25;;;;;;;;;;;16.50;43.70;;;;;;8362637;28;19978;-50
2021/11/13 14:51:25;;;;;;;;;;;16.50;43.60;;;;;;8368759;28;19913;-50
2021/11/13 14:55:27;;;;;;;;;;;16.50;43.60;;;;;;8369982;28;20301;-51
2021/11/13 14:59:27;;;;;;;;;;;16.50;43.50;;;;;;8369107;28;19969;-49
2021/11/13 15:03:32;;;;;;;;;;;16.50;43.50;;;;;;8369636;28;19917;-50
2021/11/13 15:07:37;;;;;;;;;;;16.50;43.50;;;;;;8368007;28;19925;-50
2021/11/13 15:11:44;;;;;;;;;;;16.50;43.50;;;;;;8368827;28;20394;-51
2021/11/13 15:15:45;;;;;;;;;;;16.50;43.40;;;;;;8369307;28;20004;-50
2021/11/13 15:19:47;;;;;;;;;;;16.50;43.40;;;;;;8369171;28;19917;-52
2021/11/13 15:23:47;;;;;;;;;;;16.50;43.40;;;;;;8368386;28;19924;-51
2021/11/13 15:28:02;;;;;;;;;;;16.50;43.40;;;;;;8368950;28;19925;-50
2021/11/13 15:32:03;;;;;;;;;;;16.50;43.40;;;;;;8369204;28;19925;-53
2021/11/13 15:36:04;;;;;;;;;;;16.50;43.40;;;;;;8368396;28;19943;-53
2021/11/13 15:40:20;;;;;;;;;;;16.50;43.40;;;;;;8368573;28;20347;-51
2021/11/13 15:44:23;;;;;;;;;;;16.50;43.40;;;;;;8367945;28;19923;-48
2021/11/13 15:48:25;;;;;;;;;;;16.50;43.40;;;;;;8368512;28;20018;-50
2021/11/13 15:52:33;;;;;;;;;;;16.50;43.40;;;;;;8367848;28;19917;-50
2021/11/13 15:56:39;;;;;;;;;;;16.50;43.30;;;;;;8367653;28;19928;-53
2021/11/13 16:00:39;;;;;;;;;;;16.50;43.30;;;;;;8366970;28;20015;-52
2021/11/13 16:04:41;;;;;;;;;;;16.50;43.30;;;;;;8366995;28;21272;-51
2021/11/13 16:08:42;;;;;;;;;;;16.50;43.30;;;;;;8366844;28;20285;-53
2021/11/13 16:12:43;;;;;;;;;;;16.50;43.30;;;;;;8367321;28;19920;-51
2021/11/13 16:16:44;;;;;;;;;;;16.50;43.30;;;;;;8367460;28;19996;-52
2021/11/13 16:20:44;;;;;;;;;;;16.50;43.30;;;;;;8366745;28;19917;-50
2021/11/13 16:24:45;;;;;;;;;;;16.50;43.30;;;;;;8367043;28;20392;-51
2021/11/13 16:28:46;;;;;;;;;;;16.50;43.30;;;;;;8366929;28;20307;-51
2021/11/13 16:32:46;;;;;;;;;;;16.50;43.30;;;;;;8363762;28;19928;-51
2021/11/13 16:36:47;;;;;;;;;;;16.50;43.30;;;;;;8363073;28;19960;-48
2021/11/13 16:40:58;;;;;;;;;;;16.50;43.30;;;;;;8365360;28;19921;-49
2021/11/13 16:44:58;;;;;;;;;;;16.50;43.80;;;;;;8365780;28;20366;-49
2021/11/13 16:48:59;;;;;;;;;;;16.50;43.30;;;;;;8366548;28;19925;-49
2021/11/13 16:53:00;;;;;;;;;;;16.50;43.30;;;;;;8365651;28;19988;-49
2021/11/13 16:57:00;;;;;;;;;;;16.50;43.30;;;;;;8365680;28;20408;-49
2021/11/13 17:01:02;;;;;;;;;;;16.50;43.30;;;;;;8365361;28;19917;-49
2021/11/13 17:05:03;;;;;;;;;;;16.50;43.30;;;;;;8346962;28;19917;-49
2021/11/13 17:09:04;;;;;;;;;;;16.50;43.30;;;;;;8346828;28;19953;-56
2021/11/13 17:13:05;;;;;;;;;;;16.50;43.40;;;;;;8363728;28;19980;-50
2021/11/13 17:17:05;;;;;;;;;;;16.50;43.40;;;;;;8365496;28;19920;-49
2021/11/13 17:21:06;;;;;;;;;;;16.50;43.40;;;;;;8364663;28;19917;-49
2021/11/13 17:25:07;;;;;;;;;;;16.50;43.40;;;;;;8364502;28;19928;-54
2021/11/13 17:29:13;;;;;;;;;;;16.50;43.30;;;;;;8364827;28;19929;-58
2021/11/13 17:33:13;;;;;;;;;;;16.50;43.40;;;;;;8368999;28;19920;-51
2021/11/13 17:37:14;;;;;;;;;;;16.60;43.40;;;;;;8365454;28;19993;-56
2021/11/13 17:41:14;;;;;;;;;;;16.60;43.40;;;;;;8364481;28;19917;-56
2021/11/13 17:45:17;;;;;;;;;;;16.50;43.30;;;;;;8362697;28;20069;-54
2021/11/13 17:49:18;;;;;;;;;;;16.50;43.40;;;;;;8364338;28;19925;-54
2021/11/13 17:53:18;;;;;;;;;;;16.60;43.40;;;;;;8367442;28;19917;-57
2021/11/13 17:57:19;;;;;;;;;;;16.50;43.30;;;;;;8362653;28;19931;-56
2021/11/13 18:01:21;;;;;;;;;;;16.50;43.30;;;;;;8364035;28;19927;-59
2021/11/13 18:05:22;;;;;;;;;;;16.60;43.40;;;;;;8369052;28;19913;-56
2021/11/13 18:09:23;;;;;;;;;;;16.60;43.30;;;;;;8363435;28;19925;-56
2021/11/13 18:13:23;;;;;;;;;;;16.50;43.30;;;;;;8368121;28;20415;-52
2021/11/13 18:17:24;;;;;;;;;;;16.60;43.30;;;;;;8387800;28;19925;-54
2021/11/13 18:21:25;;;;;;;;;;;16.50;43.60;;;;;;8364308;28;19960;-51
2021/11/13 18:25:27;;;;;;;;;;;16.60;43.30;;;;;;8370006;28;19917;-55
2021/11/13 18:29:28;;;;;;;;;;;16.60;43.40;;;;;;8363270;28;19981;-53
2021/11/13 18:33:28;;;;;;;;;;;16.60;43.90;;;;;;8363103;28;19959;-54
2021/11/13 18:37:29;;;;;;;;;;;16.60;43.40;;;;;;8363260;28;19958;-52
2021/11/13 18:41:30;;;;;;;;;;;16.60;43.40;;;;;;8368154;28;19920;-53
2021/11/13 18:45:31;;;;;;;;;;;16.60;43.40;;;;;;8363332;28;19917;-53
2021/11/13 18:49:32;;;;;;;;;;;16.60;43.30;;;;;;8363076;28;20441;-56
2021/11/13 18:53:33;;;;;;;;;;;16.60;43.30;;;;;;8362432;28;19917;-53
2021/11/13 18:57:33;;;;;;;;;;;16.60;43.40;;;;;;8363623;28;20392;-52
2021/11/13 19:01:34;;;;;;;;;;;16.60;43.40;;;;;;8362590;28;19986;-50
2021/11/13 19:05:35;;;;;;;;;;;16.60;43.40;;;;;;8362123;28;20263;-54
2021/11/13 19:09:36;;;;;;;;;;;16.60;43.40;;;;;;8362975;28;20290;-52
2021/11/13 19:13:37;;;;;;;;;;;16.60;43.40;;;;;;8362923;28;19970;-55
2021/11/13 19:17:37;;;;;;;;;;;16.60;43.40;;;;;;8362612;28;20374;-50
2021/11/13 19:21:38;;;;;;;;;;;16.60;43.40;;;;;;8362623;28;20439;-53
2021/11/13 19:25:42;;;;;;;;;;;16.60;43.40;;;;;;8362486;28;19921;-53
2021/11/13 19:29:45;;;;;;;;;;;16.60;43.40;;;;;;8359091;28;19987;-53
2021/11/13 19:33:46;;;;;;;;;;;16.60;43.30;;;;;;8357586;28;20119;-51
2021/11/13 19:37:47;;;;;;;;;;;16.60;43.40;;;;;;8366398;28;19917;-52
2021/11/13 19:41:48;;;;;;;;;;;16.60;43.30;;;;;;8367759;28;20281;-50
2021/11/13 19:45:48;;;;;;;;;;;16.60;43.30;;;;;;8368441;28;19917;-52
2021/11/13 19:49:49;;;;;;;;;;;16.60;43.30;;;;;;8368057;28;19920;-49
2021/11/13 19:53:49;;;;;;;;;;;16.60;43.40;;;;;;8367471;28;19917;-50
2021/11/13 19:57:50;;;;;;;;;;;16.60;43.30;;;;;;8368547;28;20422;-51
2021/11/13 20:01:50;;;;;;;;;;;16.60;43.30;;;;;;8367913;28;19917;-51
2021/11/13 20:05:51;;;;;;;;;;;16.60;43.40;;;;;;8351618;28;19924;-50
2021/11/13 20:09:51;;;;;;;;;;;16.60;43.30;;;;;;8346476;28;19927;-51
2021/11/13 20:13:54;;;;;;;;;;;16.60;43.30;;;;;;8367531;28;19921;-51
2021/11/13 20:17:54;;;;;;;;;;;16.60;43.30;;;;;;8366848;28;19919;-51
2021/11/13 20:21:56;;;;;;;;;;;16.60;43.30;;;;;;8367247;28;20285;-50
2021/11/13 20:25:57;;;;;;;;;;;16.60;43.30;;;;;;8367012;28;19974;-50
2021/11/13 20:29:58;;;;;;;;;;;16.60;43.30;;;;;;8365934;28;19929;-54
2021/11/13 20:34:01;;;;;;;;;;;16.60;43.40;;;;;;8367057;28;19927;-55
2021/11/13 20:38:08;;;;;;;;;;;16.60;43.30;;;;;;8366810;28;20362;-56
2021/11/13 20:42:14;;;;;;;;;;;16.60;43.30;;;;;;8366384;28;20399;-49
2021/11/13 20:46:14;;;;;;;;;;;16.60;43.30;;;;;;8371797;28;19924;-59
2021/11/13 20:50:20;;;;;;;;;;;16.70;43.40;;;;;;8365932;28;19920;-55
2021/11/13 20:54:20;;;;;;;;;;;16.70;43.40;;;;;;8365352;28;19920;-56
2021/11/13 20:58:21;;;;;;;;;;;16.60;43.30;;;;;;8365998;28;20338;-54
2021/11/13 21:02:23;;;;;;;;;;;16.70;43.40;;;;;;8365412;28;19917;-54
2021/11/13 21:06:26;;;;;;;;;;;16.70;43.90;;;;;;8366050;28;19924;-52
2021/11/13 21:10:30;;;;;;;;;;;16.70;43.40;;;;;;8371162;28;20645;-53
2021/11/13 21:14:30;;;;;;;;;;;16.70;43.40;;;;;;8364765;28;19968;-52
2021/11/13 21:18:31;;;;;;;;;;;16.70;43.40;;;;;;8365775;28;20300;-56
2021/11/13 21:22:32;;;;;;;;;;;16.70;43.40;;;;;;8364994;28;19917;-55
2021/11/13 21:26:32;;;;;;;;;;;16.70;43.40;;;;;;8356008;28;19920;-54
2021/11/13 21:30:33;;;;;;;;;;;16.70;43.40;;;;;;8363741;28;19928;-58
2021/11/13 21:34:37;;;;;;;;;;;16.70;43.40;;;;;;8365074;28;19913;-53
2021/11/13 21:38:37;;;;;;;;;;;16.70;43.40;;;;;;8364418;28;19921;-54
2021/11/13 21:42:38;;;;;;;;;;;16.70;43.40;;;;;;8364624;28;19944;-58
2021/11/13 21:46:40;;;;;;;;;;;16.70;43.40;;;;;;8364349;28;19916;-56
2021/11/13 21:50:41;;;;;;;;;;;16.70;43.40;;;;;;8356232;28;19975;-53
2021/11/13 21:54:42;;;;;;;;;;;16.70;43.40;;;;;;8376825;28;19943;-55
2021/11/13 21:58:43;;;;;;;;;;;16.70;43.40;;;;;;8369951;28;19913;-57
2021/11/13 22:02:43;;;;;;;;;;;16.70;43.40;;;;;;8363683;28;19924;-54
2021/11/13 22:06:44;;;;;;;;;;;16.70;43.40;;;;;;8364226;28;20324;-54
2021/11/13 22:10:45;;;;;;;;;;;16.70;43.40;;;;;;8364023;28;20293;-55
2021/11/13 22:14:46;;;;;;;;;;;16.70;43.40;;;;;;8363842;28;21256;-53
2021/11/13 22:18:47;;;;;;;;;;;16.70;43.40;;;;;;8363170;28;20361;-51
2021/11/13 22:22:47;;;;;;;;;;;16.70;43.40;;;;;;8363650;28;20012;-55
2021/11/13 22:26:48;;;;;;;;;;;16.70;43.30;;;;;;8355308;28;19920;-55
2021/11/13 22:30:49;;;;;;;;;;;16.70;43.30;;;;;;8375694;28;19929;-53
2021/11/13 22:34:50;;;;;;;;;;;16.70;43.30;;;;;;8363463;28;19917;-51
2021/11/13 22:38:50;;;;;;;;;;;16.70;43.30;;;;;;8363543;28;20406;-50
2021/11/13 22:42:51;;;;;;;;;;;16.70;43.30;;;;;;8363579;28;19924;-50
2021/11/13 22:46:52;;;;;;;;;;;16.70;43.30;;;;;;8363481;28;19924;-54
2021/11/13 22:50:53;;;;;;;;;;;16.70;43.30;;;;;;8362697;28;20321;-52
2021/11/13 22:54:53;;;;;;;;;;;16.70;43.30;;;;;;8363556;28;19974;-55
2021/11/13 22:58:54;;;;;;;;;;;16.70;43.30;;;;;;8363701;28;19913;-56
2021/11/13 23:02:54;;;;;;;;;;;16.70;43.40;;;;;;8362423;28;19924;-55
2021/11/13 23:06:56;;;;;;;;;;;16.60;43.30;;;;;;8361370;28;19963;-55
2021/11/13 23:10:58;;;;;;;;;;;16.60;43.40;;;;;;8366285;28;20289;-54
2021/11/13 23:14:59;;;;;;;;;;;16.60;43.40;;;;;;8368885;28;19925;-53
2021/11/13 23:19:01;;;;;;;;;;;16.60;43.40;;;;;;8372098;28;19917;-52
2021/11/13 23:23:02;;;;;;;;;;;16.60;43.40;;;;;;8371777;28;20007;-55
2021/11/13 23:27:02;;;;;;;;;;;16.60;43.40;;;;;;8368602;28;19916;-53